createdAt,value
2022-08-18T00:01:14.769Z,53.80
2022-08-18T00:03:56.488Z,53.90
2022-08-18T00:06:30.292Z,53.60
2022-08-18T00:08:59.773Z,53.50
2022-08-18T00:11:28.606Z,54.00
2022-08-18T00:14:11.710Z,53.70
2022-08-18T00:16:47.779Z,53.50
2022-08-18T00:19:15.846Z,53.70
2022-08-18T00:21:45.404Z,54.00
2022-08-18T00:24:13.408Z,53.90
2022-08-18T00:26:41.418Z,54.00
2022-08-18T00:29:14.938Z,54.10
2022-08-18T00:31:42.985Z,54.40
2022-08-18T00:34:10.996Z,54.80
2022-08-18T00:36:39.832Z,55.40
2022-08-18T00:39:09.257Z,55.40
2022-08-18T00:41:37.344Z,55.50
2022-08-18T00:44:05.532Z,55.40
2022-08-18T00:46:37.644Z,55.00
2022-08-18T00:49:06.117Z,54.60
2022-08-18T00:51:39.354Z,54.30
2022-08-18T00:54:12.924Z,54.50
2022-08-18T00:56:45.329Z,55.10
2022-08-18T00:59:18.593Z,54.90
2022-08-18T01:01:49.769Z,54.90
2022-08-18T01:04:21.613Z,55.40
2022-08-18T01:06:55.469Z,55.60
2022-08-18T01:09:25.266Z,55.40
2022-08-18T01:11:55.480Z,55.10
2022-08-18T01:14:23.887Z,55.20
2022-08-18T01:17:09.908Z,55.10
2022-08-18T01:19:56.254Z,54.90
2022-08-18T01:22:28.793Z,55.10
2022-08-18T01:25:19.196Z,55.20
2022-08-18T01:27:47.411Z,55.20
2022-08-18T01:30:18.330Z,55.90
2022-08-18T01:32:46.877Z,55.90
2022-08-18T01:35:17.707Z,56.10
2022-08-18T01:37:45.960Z,56.30
2022-08-18T01:41:24.379Z,56.00
2022-08-18T01:43:05.879Z,55.30
2022-08-18T01:45:34.590Z,55.70
2022-08-18T01:48:04.881Z,54.80
2022-08-18T01:50:35.112Z,54.50
2022-08-18T01:53:05.419Z,54.50
2022-08-18T01:55:35.056Z,55.00
2022-08-18T01:58:03.109Z,55.50
2022-08-18T02:00:32.214Z,55.70
2022-08-18T02:03:02.988Z,55.90
2022-08-18T02:05:35.444Z,56.50
2022-08-18T02:08:04.729Z,56.20
2022-08-18T02:10:34.610Z,56.00
2022-08-18T02:13:09.727Z,56.00
2022-08-18T02:15:37.691Z,56.10
2022-08-18T02:18:14.888Z,56.50
2022-08-18T02:21:10.387Z,55.80
2022-08-18T02:23:39.961Z,55.60
2022-08-18T02:26:16.892Z,55.40
2022-08-18T02:28:45.409Z,56.00
2022-08-18T02:31:16.246Z,55.90
2022-08-18T02:33:52.014Z,56.40
2022-08-18T02:36:25.478Z,56.70
2022-08-18T02:38:54.779Z,56.60
2022-08-18T02:41:30.159Z,56.10
2022-08-18T02:43:58.615Z,56.20
2022-08-18T02:46:30.202Z,56.50
2022-08-18T02:49:00.333Z,56.70
2022-08-18T02:51:28.770Z,55.90
2022-08-18T02:53:59.212Z,55.30
2022-08-18T02:56:33.034Z,55.00
2022-08-18T02:59:12.114Z,54.70
2022-08-18T03:01:42.772Z,54.50
2022-08-18T03:04:12.841Z,54.30
2022-08-18T03:06:41.180Z,54.20
2022-08-18T03:09:10.992Z,54.50
2022-08-18T03:11:40.720Z,54.40
2022-08-18T03:14:12.320Z,53.80
2022-08-18T03:16:53.479Z,54.20
2022-08-18T03:19:23.303Z,54.50
2022-08-18T03:21:52.452Z,54.50
2022-08-18T03:24:24.692Z,54.10
2022-08-18T03:26:55.690Z,54.20
2022-08-18T03:29:31.322Z,53.80
2022-08-18T03:32:00.332Z,53.30
2022-08-18T03:34:28.405Z,53.50
2022-08-18T03:36:56.452Z,53.30
2022-08-18T03:39:27.756Z,53.20
2022-08-18T03:42:01.016Z,53.40
2022-08-18T03:44:31.843Z,53.10
2022-08-18T03:47:01.477Z,52.90
2022-08-18T03:49:29.601Z,52.90
2022-08-18T03:52:00.799Z,52.80
2022-08-18T03:54:33.638Z,53.00
2022-08-18T03:57:03.488Z,53.20
2022-08-18T03:59:32.280Z,53.00
2022-08-18T04:02:00.798Z,52.70
2022-08-18T04:04:29.535Z,52.60
2022-08-18T04:07:00.690Z,52.80
2022-08-18T04:09:30.783Z,52.90
2022-08-18T04:12:03.466Z,52.70
2022-08-18T04:14:33.721Z,52.90
2022-08-18T04:17:01.741Z,52.90
2022-08-18T04:19:30.943Z,52.80
2022-08-18T04:21:59.118Z,53.10
2022-08-18T04:24:31.225Z,53.60
2022-08-18T04:27:04.840Z,53.30
2022-08-18T04:29:34.197Z,53.30
2022-08-18T04:32:04.750Z,53.10
2022-08-18T04:34:34.008Z,53.10
2022-08-18T04:37:02.479Z,52.80
2022-08-18T04:39:31.383Z,52.80
2022-08-18T04:42:01.518Z,52.80
2022-08-18T04:44:29.695Z,52.80
2022-08-18T04:47:00.443Z,52.80
2022-08-18T04:49:28.468Z,52.60
2022-08-18T04:52:30.878Z,52.70
2022-08-18T04:55:02.972Z,52.70
2022-08-18T04:57:33.595Z,52.90
2022-08-18T05:00:05.019Z,52.90
2022-08-18T05:02:34.962Z,53.10
2022-08-18T05:05:06.281Z,53.00
2022-08-18T05:07:34.443Z,52.60
2022-08-18T05:10:02.503Z,52.10
2022-08-18T05:12:30.549Z,51.60
2022-08-18T05:14:58.516Z,51.70
2022-08-18T05:17:30.622Z,51.30
2022-08-18T05:20:02.100Z,50.80
2022-08-18T05:22:39.079Z,50.50
2022-08-18T05:25:08.409Z,50.70
2022-08-18T05:27:38.233Z,50.10
2022-08-18T05:30:09.379Z,49.70
2022-08-18T05:32:48.501Z,49.90
2022-08-18T05:35:24.238Z,49.80
2022-08-18T05:38:05.827Z,49.80
2022-08-18T05:40:35.838Z,49.80
2022-08-18T05:43:05.820Z,50.50
2022-08-18T05:45:34.683Z,50.10
2022-08-18T05:48:02.889Z,50.00
2022-08-18T05:50:36.408Z,50.50
2022-08-18T05:53:14.146Z,50.40
2022-08-18T05:56:06.831Z,50.40
2022-08-18T05:58:38.557Z,50.60
2022-08-18T06:01:11.690Z,50.50
2022-08-18T06:03:46.590Z,50.60
2022-08-18T06:06:20.793Z,50.60
2022-08-18T06:08:57.281Z,50.60
2022-08-18T06:11:25.699Z,50.60
2022-08-18T06:13:59.016Z,50.50
2022-08-18T06:16:39.871Z,50.20
2022-08-18T06:19:24.669Z,50.30
2022-08-18T06:22:03.943Z,49.80
2022-08-18T06:24:39.028Z,49.60
2022-08-18T06:27:15.115Z,49.80
2022-08-18T06:29:58.032Z,50.40
2022-08-18T06:32:43.444Z,50.20
2022-08-18T06:35:19.536Z,50.10
2022-08-18T06:38:17.680Z,50.10
2022-08-18T06:40:48.606Z,48.90
2022-08-18T06:43:18.100Z,49.20
2022-08-18T06:45:52.300Z,48.70
2022-08-18T06:48:29.304Z,48.70
2022-08-18T06:51:00.337Z,48.50
2022-08-18T06:53:56.060Z,48.20
2022-08-18T06:56:28.370Z,48.60
2022-08-18T06:59:14.423Z,48.50
2022-08-18T07:01:43.055Z,48.00
2022-08-18T07:04:11.236Z,47.60
2022-08-18T07:06:39.221Z,47.80
2022-08-18T07:09:24.084Z,47.30
2022-08-18T07:12:01.405Z,47.70
2022-08-18T07:14:29.562Z,47.00
2022-08-18T07:17:12.359Z,46.30
2022-08-18T07:19:40.754Z,47.40
2022-08-18T07:22:12.632Z,47.30
2022-08-18T07:24:44.516Z,46.60
2022-08-18T07:27:17.508Z,46.80
2022-08-18T07:30:01.245Z,46.80
2022-08-18T07:32:34.513Z,46.40
2022-08-18T07:35:06.870Z,46.60
2022-08-18T07:37:39.568Z,46.50
2022-08-18T07:40:21.579Z,46.40
2022-08-18T07:43:01.889Z,46.30
2022-08-18T07:45:37.334Z,46.20
2022-08-18T07:48:34.840Z,46.70
2022-08-18T07:51:08.781Z,46.10
2022-08-18T07:53:54.488Z,46.00
2022-08-18T07:56:43.003Z,46.00
2022-08-18T07:59:16.878Z,45.70
2022-08-18T08:01:53.911Z,45.60
2022-08-18T08:04:30.662Z,45.90
2022-08-18T08:10:02.367Z,45.80
2022-08-18T08:12:42.697Z,45.50
2022-08-18T08:15:18.260Z,44.80
2022-08-18T08:18:04.696Z,44.80
2022-08-18T08:20:39.933Z,45.70
2022-08-18T08:23:18.683Z,45.30
2022-08-18T08:25:56.950Z,45.00
2022-08-18T08:28:39.375Z,44.50
2022-08-18T08:31:35.857Z,44.00
2022-08-18T08:34:08.424Z,44.60
2022-08-18T08:36:41.423Z,44.50
2022-08-18T08:39:15.062Z,43.90
2022-08-18T08:41:49.163Z,43.80
2022-08-18T08:44:23.158Z,42.80
2022-08-18T08:46:57.743Z,43.70
2022-08-18T08:49:46.804Z,43.20
2022-08-18T08:52:33.637Z,43.60
2022-08-18T08:55:08.417Z,43.00
2022-08-18T08:57:42.653Z,43.40
2022-08-18T09:00:14.861Z,43.90
2022-08-18T09:03:00.641Z,43.20
2022-08-18T09:05:31.742Z,43.30
2022-08-18T09:08:27.901Z,42.90
2022-08-18T09:11:13.994Z,43.20
2022-08-18T09:14:01.368Z,42.90
2022-08-18T09:16:45.125Z,42.50
2022-08-18T09:19:33.296Z,42.10
2022-08-18T09:22:06.494Z,42.00
2022-08-18T09:24:50.904Z,41.40
2022-08-18T09:28:09.538Z,41.70
2022-08-18T09:30:43.627Z,42.00
2022-08-18T09:33:22.993Z,40.50
2022-08-18T09:39:40.218Z,40.90
2022-08-18T09:42:11.958Z,40.80
2022-08-18T09:48:03.543Z,40.80
2022-08-18T09:50:51.906Z,40.70
2022-08-18T09:53:36.755Z,40.70
2022-08-18T09:56:07.114Z,41.00
2022-08-18T09:58:58.630Z,40.60
2022-08-18T10:01:52.800Z,40.80
2022-08-18T10:04:32.049Z,40.30
2022-08-18T10:10:59.397Z,40.80
2022-08-18T10:13:25.036Z,40.60
2022-08-18T10:16:14.183Z,40.20
2022-08-18T10:19:00.181Z,39.90
2022-08-18T10:21:33.535Z,39.10
2022-08-18T10:24:36.053Z,39.00
2022-08-18T10:27:08.551Z,39.50
2022-08-18T10:29:52.818Z,39.30
2022-08-18T10:32:41.139Z,39.50
2022-08-18T10:35:52.446Z,39.80
2022-08-18T10:38:26.301Z,39.80
2022-08-18T10:41:15.139Z,39.10
2022-08-18T10:49:36.703Z,39.00
2022-08-18T10:52:45.987Z,40.00
2022-08-18T10:55:47.702Z,38.30
2022-08-18T10:58:40.878Z,38.10
2022-08-18T11:01:18.039Z,38.90
2022-08-18T11:04:14.315Z,39.40
2022-08-18T11:06:54.641Z,39.90
2022-08-18T11:09:28.677Z,38.30
2022-08-18T11:15:23.090Z,37.70
2022-08-18T11:18:03.086Z,38.60
2022-08-18T11:20:34.177Z,38.20
2022-08-18T11:23:04.719Z,38.10
2022-08-18T11:25:35.010Z,38.80
2022-08-18T11:28:04.216Z,39.30
2022-08-18T11:30:40.223Z,38.90
2022-08-18T11:33:23.227Z,38.40
2022-08-18T11:35:57.650Z,38.00
2022-08-18T11:38:29.695Z,38.80
2022-08-18T11:41:13.605Z,38.80
2022-08-18T11:43:47.609Z,38.10
2022-08-18T11:49:26.277Z,38.40
2022-08-18T11:52:02.993Z,38.30
2022-08-18T11:54:40.194Z,38.30
2022-08-18T11:57:46.164Z,38.00
2022-08-18T12:00:43.105Z,38.00
2022-08-18T12:03:20.323Z,38.10
2022-08-18T12:05:55.720Z,38.10
2022-08-18T12:08:56.169Z,37.60
2022-08-18T12:11:26.522Z,37.30
2022-08-18T12:14:30.546Z,37.20
2022-08-18T12:16:50.910Z,36.80
2022-08-18T12:19:25.311Z,36.50
2022-08-18T12:21:57.893Z,37.20
2022-08-18T12:24:34.451Z,37.40
2022-08-18T12:29:55.425Z,36.70
2022-08-18T12:32:48.833Z,36.70
2022-08-18T12:35:22.136Z,37.00
2022-08-18T12:40:39.942Z,36.70
2022-08-18T12:43:08.306Z,36.80
2022-08-18T12:45:38.164Z,37.40
2022-08-18T12:48:07.694Z,37.50
2022-08-18T12:53:38.227Z,38.10
2022-08-18T12:56:22.102Z,37.50
2022-08-18T12:58:51.783Z,37.50
2022-08-18T13:01:20.889Z,37.40
2022-08-18T13:04:11.112Z,37.10
2022-08-18T13:06:59.501Z,37.40
2022-08-18T13:09:42.693Z,37.30
2022-08-18T13:12:19.618Z,37.20
2022-08-18T13:14:49.752Z,37.30
2022-08-18T13:17:32.861Z,36.80
2022-08-18T13:20:05.427Z,36.00
2022-08-18T13:22:35.169Z,36.10
2022-08-18T13:25:06.139Z,36.50
2022-08-18T13:27:35.599Z,36.70
2022-08-18T13:30:16.761Z,36.70
2022-08-18T13:32:59.360Z,36.90
2022-08-18T13:35:30.043Z,37.20
2022-08-18T13:38:14.094Z,36.80
2022-08-18T13:40:45.474Z,36.60
2022-08-18T13:43:15.508Z,37.30
2022-08-18T13:45:53.200Z,36.80
2022-08-18T13:48:25.547Z,37.00
2022-08-18T13:50:56.862Z,37.20
2022-08-18T13:53:28.596Z,36.30
2022-08-18T13:55:58.996Z,36.80
2022-08-18T13:58:28.044Z,36.50
2022-08-18T14:01:22.515Z,36.30
2022-08-18T14:03:47.905Z,36.70
2022-08-18T14:06:21.994Z,36.20
2022-08-18T14:08:53.223Z,36.50
2022-08-18T14:11:27.371Z,36.40
2022-08-18T14:13:55.939Z,34.80
2022-08-18T14:16:26.702Z,35.10
2022-08-18T14:19:14.077Z,35.70
2022-08-18T14:22:03.652Z,36.00
2022-08-18T14:24:52.340Z,36.60
2022-08-18T14:27:21.238Z,36.40
2022-08-18T14:29:49.880Z,36.90
2022-08-18T14:32:29.244Z,37.50
2022-08-18T14:35:01.019Z,37.00
2022-08-18T14:37:48.318Z,36.80
2022-08-18T14:40:20.170Z,36.90
2022-08-18T14:42:54.430Z,37.00
2022-08-18T14:45:28.000Z,37.00
2022-08-18T14:48:06.582Z,37.10
2022-08-18T14:50:40.071Z,36.60
2022-08-18T14:53:13.583Z,36.70
2022-08-18T14:55:44.433Z,36.70
2022-08-18T14:58:18.744Z,37.20
2022-08-18T15:00:54.226Z,36.60
2022-08-18T15:03:30.972Z,36.90
2022-08-18T15:06:04.666Z,36.70
2022-08-18T15:08:34.302Z,36.60
2022-08-18T15:11:11.602Z,36.80
2022-08-18T15:13:41.614Z,37.00
2022-08-18T15:16:13.366Z,36.60
2022-08-18T15:18:41.672Z,36.60
2022-08-18T15:21:35.537Z,36.80
2022-08-18T15:24:25.451Z,36.80
2022-08-18T15:26:58.145Z,37.20
2022-08-18T15:29:35.672Z,37.20
2022-08-18T15:32:05.545Z,37.20
2022-08-18T15:34:46.848Z,37.30
2022-08-18T15:37:24.404Z,37.80
2022-08-18T15:40:02.596Z,37.30
2022-08-18T15:42:33.164Z,37.50
2022-08-18T15:45:11.894Z,37.00
2022-08-18T15:47:42.248Z,37.50
2022-08-18T15:50:21.639Z,37.50
2022-08-18T15:52:55.973Z,37.20
2022-08-18T15:55:25.024Z,37.10
2022-08-18T15:57:56.798Z,37.20
2022-08-18T16:00:27.781Z,37.60
2022-08-18T16:02:59.283Z,37.20
2022-08-18T16:05:30.961Z,37.40
2022-08-18T16:08:01.180Z,37.50
2022-08-18T16:10:32.566Z,37.10
2022-08-18T16:13:04.600Z,37.50
2022-08-18T16:15:36.940Z,38.10
2022-08-18T16:18:06.279Z,38.20
2022-08-18T16:20:35.234Z,37.90
2022-08-18T16:23:03.396Z,38.00
2022-08-18T16:25:31.415Z,38.40
2022-08-18T16:28:01.441Z,38.80
2022-08-18T16:30:30.240Z,38.30
2022-08-18T16:33:03.444Z,38.80
2022-08-18T16:35:32.648Z,38.80
2022-08-18T16:38:04.393Z,38.90
2022-08-18T16:40:32.795Z,38.90
2022-08-18T16:43:02.399Z,39.40
2022-08-18T16:45:31.974Z,39.30
2022-08-18T16:48:00.022Z,39.20
2022-08-18T16:50:28.205Z,39.20
2022-08-18T16:52:56.652Z,39.40
2022-08-18T16:55:24.696Z,39.40
2022-08-18T16:58:15.452Z,39.40
2022-08-18T17:01:02.863Z,39.50
2022-08-18T17:03:48.688Z,39.60
2022-08-18T17:06:19.401Z,39.80
2022-08-18T17:08:47.793Z,39.80
2022-08-18T17:11:19.699Z,40.30
2022-08-18T17:13:49.092Z,40.10
2022-08-18T17:16:19.760Z,40.50
2022-08-18T17:18:48.660Z,40.30
2022-08-18T17:21:19.673Z,40.30
2022-08-18T17:23:48.695Z,40.50
2022-08-18T17:26:28.929Z,40.50
2022-08-18T17:29:03.091Z,40.50
2022-08-18T17:31:34.284Z,40.50
2022-08-18T17:34:07.186Z,40.70
2022-08-18T17:36:39.122Z,40.80
2022-08-18T17:39:16.837Z,40.70
2022-08-18T17:42:02.638Z,40.80
2022-08-18T17:44:32.559Z,40.90
2022-08-18T17:47:06.035Z,40.90
2022-08-18T17:50:27.438Z,41.00
2022-08-18T17:52:53.463Z,41.00
2022-08-18T17:55:29.862Z,41.10
2022-08-18T17:58:02.649Z,41.10
2022-08-18T18:00:32.470Z,41.80
2022-08-18T18:03:02.187Z,41.30
2022-08-18T18:05:38.433Z,41.60
2022-08-18T18:08:06.797Z,41.40
2022-08-18T18:10:51.050Z,41.30
2022-08-18T18:13:26.948Z,41.40
2022-08-18T18:15:57.262Z,41.60
2022-08-18T18:18:34.954Z,41.70
2022-08-18T18:21:07.465Z,41.60
2022-08-18T18:23:41.409Z,41.80
2022-08-18T18:26:30.882Z,41.80
2022-08-18T18:29:17.607Z,41.80
2022-08-18T18:31:48.532Z,41.80
2022-08-18T18:34:28.199Z,41.80
2022-08-18T18:36:57.607Z,41.90
2022-08-18T18:39:33.260Z,41.90
2022-08-18T18:42:17.961Z,42.00
2022-08-18T18:44:55.787Z,42.10
2022-08-18T18:47:42.563Z,42.10
2022-08-18T18:50:18.436Z,42.20
2022-08-18T18:52:59.703Z,42.40
2022-08-18T18:55:35.080Z,42.50
2022-08-18T18:58:12.322Z,42.50
2022-08-18T19:00:53.539Z,42.50
2022-08-18T19:03:29.378Z,42.50
2022-08-18T19:06:14.354Z,42.60
2022-08-18T19:08:50.491Z,42.70
2022-08-18T19:11:24.999Z,42.80
2022-08-18T19:13:59.679Z,42.90
2022-08-18T19:16:34.672Z,42.80
2022-08-18T19:19:35.785Z,42.90
2022-08-18T19:22:09.100Z,43.10
2022-08-18T19:24:44.235Z,43.40
2022-08-18T19:27:23.353Z,43.40
2022-08-18T19:29:57.656Z,43.10
2022-08-18T19:32:37.756Z,43.20
2022-08-18T19:35:11.877Z,43.50
2022-08-18T19:38:02.009Z,43.40
2022-08-18T19:40:43.456Z,43.40
2022-08-18T19:43:16.726Z,43.50
2022-08-18T19:45:50.780Z,43.60
2022-08-18T19:48:27.068Z,43.60
2022-08-18T19:51:04.888Z,43.70
2022-08-18T19:54:01.567Z,43.80
2022-08-18T19:56:58.685Z,43.80
2022-08-18T19:59:45.278Z,44.10
2022-08-18T20:02:26.532Z,44.00
2022-08-18T20:05:10.173Z,44.10
2022-08-18T20:07:55.634Z,44.30
2022-08-18T20:10:40.299Z,44.40
2022-08-18T20:13:27.633Z,44.60
2022-08-18T20:16:13.346Z,44.60
2022-08-18T20:18:44.340Z,45.00
2022-08-18T20:21:41.197Z,45.00
2022-08-18T20:24:45.518Z,44.80
2022-08-18T20:27:36.030Z,44.90
2022-08-18T20:30:32.883Z,44.80
2022-08-18T20:33:20.665Z,44.90
2022-08-18T20:36:00.292Z,44.90
2022-08-18T20:38:34.132Z,44.90
2022-08-18T20:41:38.069Z,44.80
2022-08-18T20:44:36.384Z,44.80
2022-08-18T20:47:38.057Z,45.30
2022-08-18T20:50:31.316Z,45.30
2022-08-18T20:53:07.890Z,45.30
2022-08-18T20:55:56.323Z,45.40
2022-08-18T20:58:31.997Z,45.70
2022-08-18T21:01:01.744Z,45.70
2022-08-18T21:03:38.461Z,45.80
2022-08-18T21:06:08.088Z,45.70
2022-08-18T21:08:37.734Z,45.70
2022-08-18T21:11:09.192Z,45.70
2022-08-18T21:13:51.255Z,45.70
2022-08-18T21:16:38.403Z,45.90
2022-08-18T21:19:13.837Z,46.10
2022-08-18T21:21:46.660Z,46.00
2022-08-18T21:24:27.683Z,45.90
2022-08-18T21:26:58.449Z,46.20
2022-08-18T21:29:44.266Z,46.30
2022-08-18T21:32:21.304Z,46.40
2022-08-18T21:34:49.864Z,46.40
2022-08-18T21:37:19.850Z,46.70
2022-08-18T21:39:54.253Z,46.50
2022-08-18T21:42:26.224Z,46.80
2022-08-18T21:44:58.741Z,46.90
2022-08-18T21:47:30.702Z,47.00
2022-08-18T21:50:01.677Z,46.70
2022-08-18T21:52:31.638Z,46.80
2022-08-18T21:55:07.870Z,46.70
2022-08-18T21:57:52.389Z,46.90
2022-08-18T22:00:28.531Z,46.70
2022-08-18T22:03:15.335Z,46.70
2022-08-18T22:05:58.142Z,46.70
2022-08-18T22:08:29.776Z,46.60
2022-08-18T22:12:00.052Z,46.50
2022-08-18T22:14:36.125Z,46.40
2022-08-18T22:17:33.222Z,46.30
2022-08-18T22:20:33.463Z,46.40
2022-08-18T22:23:39.653Z,46.40
2022-08-18T22:26:13.120Z,46.30
2022-08-18T22:28:56.013Z,46.40
2022-08-18T22:31:24.794Z,46.50
2022-08-18T22:33:55.038Z,46.70
2022-08-18T22:36:26.371Z,46.70
2022-08-18T22:38:55.032Z,46.80
2022-08-18T22:41:23.700Z,46.70
2022-08-18T22:43:54.705Z,46.70
2022-08-18T22:46:24.669Z,46.80
2022-08-18T22:48:54.547Z,46.90
2022-08-18T22:51:24.224Z,46.90
2022-08-18T22:53:52.918Z,46.80
2022-08-18T22:56:23.750Z,46.80
2022-08-18T22:59:12.140Z,46.80
2022-08-18T23:01:46.241Z,46.70
2022-08-18T23:04:17.017Z,46.70
2022-08-18T23:06:51.932Z,46.50
2022-08-18T23:09:22.547Z,46.80
2022-08-18T23:11:51.081Z,46.80
2022-08-18T23:14:19.216Z,46.90
2022-08-18T23:16:47.293Z,46.80
2022-08-18T23:19:18.846Z,46.90
2022-08-18T23:21:48.364Z,47.10
2022-08-18T23:24:17.885Z,47.20
2022-08-18T23:26:46.065Z,47.20
2022-08-18T23:29:14.897Z,47.00
2022-08-18T23:31:44.998Z,47.10
2022-08-18T23:34:15.319Z,46.90
2022-08-18T23:36:46.098Z,46.90
2022-08-18T23:39:14.936Z,47.00
2022-08-18T23:41:46.520Z,47.00
2022-08-18T23:44:18.699Z,46.80
2022-08-18T23:46:48.179Z,46.90
2022-08-18T23:49:16.567Z,46.80
2022-08-18T23:51:48.979Z,46.80
2022-08-18T23:54:19.695Z,46.90
2022-08-18T23:56:48.426Z,47.00
2022-08-18T23:59:18.610Z,46.90
